sensor_id;sensor_type;location;lat;lon;timestamp;temperature;humidity
23591;DHT22;11973;52.098;7.582;2023-07-24T04:16:54;18.50;98.60
23591;DHT22;11973;52.098;7.582;2023-07-24T04:19:21;18.50;98.60
23591;DHT22;11973;52.098;7.582;2023-07-24T04:21:46;18.50;98.60
23591;DHT22;11973;52.098;7.582;2023-07-24T04:24:12;18.50;98.70
23591;DHT22;11973;52.098;7.582;2023-07-24T04:26:38;18.50;98.70
23591;DHT22;11973;52.098;7.582;2023-07-24T04:29:05;18.50;98.70
23591;DHT22;11973;52.098;7.582;2023-07-24T04:31:31;18.50;98.70
23591;DHT22;11973;52.098;7.582;2023-07-24T04:33:57;18.50;98.80
23591;DHT22;11973;52.098;7.582;2023-07-24T04:36:22;18.50;98.80
23591;DHT22;11973;52.098;7.582;2023-07-24T04:38:48;18.50;99.10
23591;DHT22;11973;52.098;7.582;2023-07-24T04:41:14;18.50;98.80
23591;DHT22;11973;52.098;7.582;2023-07-24T04:43:39;18.50;98.80
23591;DHT22;11973;52.098;7.582;2023-07-24T04:46:05;18.50;98.90
23591;DHT22;11973;52.098;7.582;2023-07-24T04:48:31;18.50;98.90
23591;DHT22;11973;52.098;7.582;2023-07-24T04:50:57;18.40;98.90
23591;DHT22;11973;52.098;7.582;2023-07-24T04:53:23;18.40;99.00
23591;DHT22;11973;52.098;7.582;2023-07-24T04:55:48;18.40;99.10
23591;DHT22;11973;52.098;7.582;2023-07-24T04:58:14;18.40;99.10
23591;DHT22;11973;52.098;7.582;2023-07-24T05:00:40;18.40;99.20
23591;DHT22;11973;52.098;7.582;2023-07-24T05:03:06;18.40;99.20
23591;DHT22;11973;52.098;7.582;2023-07-24T05:05:34;18.40;99.30
23591;DHT22;11973;52.098;7.582;2023-07-24T05:08:00;18.40;99.40
23591;DHT22;11973;52.098;7.582;2023-07-24T05:10:25;18.40;99.40
23591;DHT22;11973;52.098;7.582;2023-07-24T05:12:51;18.50;99.50
23591;DHT22;11973;52.098;7.582;2023-07-24T05:15:17;18.50;99.60
23591;DHT22;11973;52.098;7.582;2023-07-24T05:17:45;18.50;99.60
23591;DHT22;11973;52.098;7.582;2023-07-24T05:20:11;18.50;99.60
23591;DHT22;11973;52.098;7.582;2023-07-24T05:22:37;18.50;99.60
23591;DHT22;11973;52.098;7.582;2023-07-24T05:25:02;18.50;99.60
23591;DHT22;11973;52.098;7.582;2023-07-24T05:27:28;18.50;99.70
23591;DHT22;11973;52.098;7.582;2023-07-24T05:29:55;18.50;99.70
23591;DHT22;11973;52.098;7.582;2023-07-24T05:32:21;18.50;99.80
23591;DHT22;11973;52.098;7.582;2023-07-24T05:34:46;18.50;99.80
23591;DHT22;11973;52.098;7.582;2023-07-24T05:37:12;18.50;99.80
23591;DHT22;11973;52.098;7.582;2023-07-24T05:39:38;18.50;99.80
23591;DHT22;11973;52.098;7.582;2023-07-24T05:42:04;18.50;99.90
23591;DHT22;11973;52.098;7.582;2023-07-24T05:44:30;18.50;99.90
23591;DHT22;11973;52.098;7.582;2023-07-24T05:46:55;18.60;99.90
23591;DHT22;11973;52.098;7.582;2023-07-24T05:49:21;18.60;99.90
23591;DHT22;11973;52.098;7.582;2023-07-24T05:51:47;18.70;99.90
23591;DHT22;11973;52.098;7.582;2023-07-24T05:54:13;18.70;99.90
23591;DHT22;11973;52.098;7.582;2023-07-24T05:56:38;18.80;99.90
23591;DHT22;11973;52.098;7.582;2023-07-24T05:59:04;18.80;99.90
23591;DHT22;11973;52.098;7.582;2023-07-24T06:01:30;18.80;99.90
23591;DHT22;11973;52.098;7.582;2023-07-24T06:03:55;18.80;99.90
23591;DHT22;11973;52.098;7.582;2023-07-24T06:06:21;18.90;99.90
23591;DHT22;11973;52.098;7.582;2023-07-24T06:08:47;18.90;99.90
23591;DHT22;11973;52.098;7.582;2023-07-24T06:11:13;19.00;99.90
23591;DHT22;11973;52.098;7.582;2023-07-24T06:13:38;19.00;99.90
23591;DHT22;11973;52.098;7.582;2023-07-24T06:16:04;19.10;99.90
23591;DHT22;11973;52.098;7.582;2023-07-24T06:18:30;19.10;99.90
23591;DHT22;11973;52.098;7.582;2023-07-24T06:20:55;19.10;99.90
23591;DHT22;11973;52.098;7.582;2023-07-24T06:23:21;19.20;99.90
23591;DHT22;11973;52.098;7.582;2023-07-24T06:25:47;19.20;99.90
23591;DHT22;11973;52.098;7.582;2023-07-24T06:28:12;19.20;99.90
23591;DHT22;11973;52.098;7.582;2023-07-24T06:30:39;19.30;99.90
23591;DHT22;11973;52.098;7.582;2023-07-24T06:33:04;19.40;99.90
23591;DHT22;11973;52.098;7.582;2023-07-24T06:35:31;19.40;99.90
23591;DHT22;11973;52.098;7.582;2023-07-24T06:37:56;19.40;99.90
23591;DHT22;11973;52.098;7.582;2023-07-24T06:40:22;19.40;99.90
23591;DHT22;11973;52.098;7.582;2023-07-24T06:42:48;19.40;99.90
23591;DHT22;11973;52.098;7.582;2023-07-24T06:45:13;19.40;99.90
23591;DHT22;11973;52.098;7.582;2023-07-24T06:47:39;19.30;99.90
23591;DHT22;11973;52.098;7.582;2023-07-24T06:50:05;19.30;99.90
23591;DHT22;11973;52.098;7.582;2023-07-24T06:52:32;19.40;99.90
23591;DHT22;11973;52.098;7.582;2023-07-24T06:54:58;19.40;99.90
23591;DHT22;11973;52.098;7.582;2023-07-24T06:57:24;19.40;99.90
23591;DHT22;11973;52.098;7.582;2023-07-24T06:59:50;19.50;99.90
23591;DHT22;11973;52.098;7.582;2023-07-24T07:02:15;19.60;99.90
23591;DHT22;11973;52.098;7.582;2023-07-24T07:04:41;19.70;99.90
23591;DHT22;11973;52.098;7.582;2023-07-24T07:07:07;19.80;99.90
23591;DHT22;11973;52.098;7.582;2023-07-24T07:09:33;19.90;99.90
23591;DHT22;11973;52.098;7.582;2023-07-24T07:11:58;19.90;99.90
23591;DHT22;11973;52.098;7.582;2023-07-24T07:14:24;19.90;99.90
23591;DHT22;11973;52.098;7.582;2023-07-24T07:16:50;19.90;99.90
23591;DHT22;11973;52.098;7.582;2023-07-24T07:19:15;19.90;99.90
23591;DHT22;11973;52.098;7.582;2023-07-24T07:21:41;19.90;99.90
23591;DHT22;11973;52.098;7.582;2023-07-24T07:24:07;19.90;99.90
23591;DHT22;11973;52.098;7.582;2023-07-24T07:26:32;19.90;99.90
23591;DHT22;11973;52.098;7.582;2023-07-24T07:28:59;19.90;99.90
23591;DHT22;11973;52.098;7.582;2023-07-24T07:31:25;19.90;99.90
23591;DHT22;11973;52.098;7.582;2023-07-24T07:33:50;19.90;99.90
23591;DHT22;11973;52.098;7.582;2023-07-24T07:36:16;19.90;99.90
23591;DHT22;11973;52.098;7.582;2023-07-24T07:38:43;19.90;99.90
23591;DHT22;11973;52.098;7.582;2023-07-24T07:41:09;20.00;99.90
23591;DHT22;11973;52.098;7.582;2023-07-24T07:43:35;20.00;99.90
23591;DHT22;11973;52.098;7.582;2023-07-24T07:46:02;20.00;99.90
23591;DHT22;11973;52.098;7.582;2023-07-24T07:48:28;20.00;99.90
23591;DHT22;11973;52.098;7.582;2023-07-24T07:50:54;20.00;99.90
23591;DHT22;11973;52.098;7.582;2023-07-24T07:53:20;20.00;99.90
23591;DHT22;11973;52.098;7.582;2023-07-24T07:55:46;19.90;99.90
23591;DHT22;11973;52.098;7.582;2023-07-24T07:58:12;20.00;99.90
23591;DHT22;11973;52.098;7.582;2023-07-24T08:00:38;20.00;99.90
23591;DHT22;11973;52.098;7.582;2023-07-24T08:03:05;20.10;99.90
23591;DHT22;11973;52.098;7.582;2023-07-24T08:05:31;20.20;99.90
23591;DHT22;11973;52.098;7.582;2023-07-24T08:07:58;20.30;99.90
23591;DHT22;11973;52.098;7.582;2023-07-24T08:10:23;20.30;99.90
23591;DHT22;11973;52.098;7.582;2023-07-24T08:12:49;20.30;99.90
23591;DHT22;11973;52.098;7.582;2023-07-24T08:15:15;20.30;99.90
23591;DHT22;11973;52.098;7.582;2023-07-24T08:17:40;20.20;99.90
23591;DHT22;11973;52.098;7.582;2023-07-24T08:20:06;20.20;99.80
23591;DHT22;11973;52.098;7.582;2023-07-24T08:22:32;20.10;99.60
23591;DHT22;11973;52.098;7.582;2023-07-24T08:24:58;20.10;99.40
23591;DHT22;11973;52.098;7.582;2023-07-24T08:27:24;20.10;99.40
23591;DHT22;11973;52.098;7.582;2023-07-24T08:29:52;20.00;99.30
23591;DHT22;11973;52.098;7.582;2023-07-24T08:32:18;20.00;99.30
23591;DHT22;11973;52.098;7.582;2023-07-24T08:34:44;20.00;99.30
23591;DHT22;11973;52.098;7.582;2023-07-24T08:37:11;20.00;99.30
23591;DHT22;11973;52.098;7.582;2023-07-24T08:39:37;20.10;99.40
23591;DHT22;11973;52.098;7.582;2023-07-24T08:42:10;20.20;99.40
23591;DHT22;11973;52.098;7.582;2023-07-24T08:44:37;20.40;99.40
23591;DHT22;11973;52.098;7.582;2023-07-24T08:47:04;20.60;99.60
23591;DHT22;11973;52.098;7.582;2023-07-24T08:49:30;20.80;99.80
23591;DHT22;11973;52.098;7.582;2023-07-24T08:51:58;20.90;99.30
23591;DHT22;11973;52.098;7.582;2023-07-24T08:54:26;21.20;99.20
23591;DHT22;11973;52.098;7.582;2023-07-24T08:56:52;21.30;99.20
23591;DHT22;11973;52.098;7.582;2023-07-24T08:59:18;21.60;98.90
23591;DHT22;11973;52.098;7.582;2023-07-24T09:01:44;21.70;98.70
23591;DHT22;11973;52.098;7.582;2023-07-24T09:04:10;21.70;98.50
23591;DHT22;11973;52.098;7.582;2023-07-24T09:06:36;21.70;98.40
23591;DHT22;11973;52.098;7.582;2023-07-24T09:09:02;21.60;98.20
23591;DHT22;11973;52.098;7.582;2023-07-24T09:11:48;21.50;98.00
23591;DHT22;11973;52.098;7.582;2023-07-24T09:14:22;21.40;97.70
23591;DHT22;11973;52.098;7.582;2023-07-24T09:16:48;21.40;97.70
23591;DHT22;11973;52.098;7.582;2023-07-24T09:19:19;21.50;97.70
23591;DHT22;11973;52.098;7.582;2023-07-24T09:21:45;21.70;97.70
23591;DHT22;11973;52.098;7.582;2023-07-24T09:24:14;21.70;97.70
23591;DHT22;11973;52.098;7.582;2023-07-24T09:26:51;21.70;97.60
23591;DHT22;11973;52.098;7.582;2023-07-24T09:29:17;21.70;97.30
23591;DHT22;11973;52.098;7.582;2023-07-24T09:31:44;21.70;97.10
23591;DHT22;11973;52.098;7.582;2023-07-24T09:34:17;21.60;96.90
23591;DHT22;11973;52.098;7.582;2023-07-24T09:36:44;21.60;97.20
23591;DHT22;11973;52.098;7.582;2023-07-24T09:39:10;21.60;97.20
23591;DHT22;11973;52.098;7.582;2023-07-24T09:41:38;21.60;96.70
23591;DHT22;11973;52.098;7.582;2023-07-24T09:44:05;21.60;96.60
23591;DHT22;11973;52.098;7.582;2023-07-24T09:46:30;21.60;96.40
23591;DHT22;11973;52.098;7.582;2023-07-24T09:48:57;21.60;96.40
23591;DHT22;11973;52.098;7.582;2023-07-24T09:51:24;21.80;96.40
23591;DHT22;11973;52.098;7.582;2023-07-24T09:54:00;22.00;96.50
23591;DHT22;11973;52.098;7.582;2023-07-24T09:56:27;22.20;96.40
23591;DHT22;11973;52.098;7.582;2023-07-24T09:58:54;22.40;96.30
23591;DHT22;11973;52.098;7.582;2023-07-24T10:01:21;22.50;96.00
23591;DHT22;11973;52.098;7.582;2023-07-24T10:03:49;22.60;95.80
23591;DHT22;11973;52.098;7.582;2023-07-24T10:06:16;22.60;95.60
23591;DHT22;11973;52.098;7.582;2023-07-24T10:08:43;22.70;95.50
23591;DHT22;11973;52.098;7.582;2023-07-24T10:11:13;22.70;95.20
23591;DHT22;11973;52.098;7.582;2023-07-24T10:13:40;22.70;95.00
23591;DHT22;11973;52.098;7.582;2023-07-24T10:16:07;22.60;94.70
23591;DHT22;11973;52.098;7.582;2023-07-24T10:18:35;22.60;94.70
23591;DHT22;11973;52.098;7.582;2023-07-24T10:21:05;22.60;94.60
23591;DHT22;11973;52.098;7.582;2023-07-24T10:23:35;22.60;94.40
23591;DHT22;11973;52.098;7.582;2023-07-24T10:26:04;22.50;94.20
23591;DHT22;11973;52.098;7.582;2023-07-24T10:28:32;22.40;94.20
23591;DHT22;11973;52.098;7.582;2023-07-24T10:30:59;22.40;94.20
23591;DHT22;11973;52.098;7.582;2023-07-24T10:33:30;22.50;94.20
23591;DHT22;11973;52.098;7.582;2023-07-24T10:36:08;22.60;94.00
23591;DHT22;11973;52.098;7.582;2023-07-24T10:38:37;22.70;93.90
23591;DHT22;11973;52.098;7.582;2023-07-24T10:41:05;22.70;93.80
23591;DHT22;11973;52.098;7.582;2023-07-24T10:43:44;22.80;93.60
23591;DHT22;11973;52.098;7.582;2023-07-24T10:46:11;22.80;93.60
23591;DHT22;11973;52.098;7.582;2023-07-24T10:48:37;22.80;93.70
23591;DHT22;11973;52.098;7.582;2023-07-24T10:51:07;22.80;94.00
23591;DHT22;11973;52.098;7.582;2023-07-24T10:53:37;22.80;93.50
23591;DHT22;11973;52.098;7.582;2023-07-24T10:56:04;22.80;93.40
23591;DHT22;11973;52.098;7.582;2023-07-24T10:58:31;22.80;93.10
23591;DHT22;11973;52.098;7.582;2023-07-24T11:00:58;22.80;93.00
23591;DHT22;11973;52.098;7.582;2023-07-24T11:03:25;22.80;92.80
23591;DHT22;11973;52.098;7.582;2023-07-24T11:05:51;22.90;92.90
23591;DHT22;11973;52.098;7.582;2023-07-24T11:08:19;23.10;92.80
23591;DHT22;11973;52.098;7.582;2023-07-24T11:13:15;23.30;92.40
23591;DHT22;11973;52.098;7.582;2023-07-24T11:15:41;23.30;92.30
23591;DHT22;11973;52.098;7.582;2023-07-24T11:18:07;23.30;92.20
23591;DHT22;11973;52.098;7.582;2023-07-24T11:20:43;23.30;92.10
23591;DHT22;11973;52.098;7.582;2023-07-24T11:23:10;23.30;91.90
23591;DHT22;11973;52.098;7.582;2023-07-24T11:25:35;23.30;91.80
23591;DHT22;11973;52.098;7.582;2023-07-24T11:28:01;23.40;91.80
23591;DHT22;11973;52.098;7.582;2023-07-24T11:30:28;23.40;91.60
23591;DHT22;11973;52.098;7.582;2023-07-24T11:32:53;23.30;91.50
23591;DHT22;11973;52.098;7.582;2023-07-24T11:35:20;23.30;91.50
23591;DHT22;11973;52.098;7.582;2023-07-24T11:37:47;23.40;91.50
23591;DHT22;11973;52.098;7.582;2023-07-24T11:40:13;23.30;91.40
23591;DHT22;11973;52.098;7.582;2023-07-24T11:42:43;23.40;91.30
23591;DHT22;11973;52.098;7.582;2023-07-24T11:45:09;23.50;91.20
23591;DHT22;11973;52.098;7.582;2023-07-24T11:47:48;23.60;91.10
23591;DHT22;11973;52.098;7.582;2023-07-24T11:50:16;23.80;91.00
23591;DHT22;11973;52.098;7.582;2023-07-24T11:52:46;23.80;91.00
23591;DHT22;11973;52.098;7.582;2023-07-24T11:55:14;23.90;90.80
23591;DHT22;11973;52.098;7.582;2023-07-24T11:57:40;24.00;90.70
23591;DHT22;11973;52.098;7.582;2023-07-24T12:00:17;24.00;91.00
23591;DHT22;11973;52.098;7.582;2023-07-24T12:02:43;24.20;90.50
23591;DHT22;11973;52.098;7.582;2023-07-24T12:05:10;24.20;90.40
23591;DHT22;11973;52.098;7.582;2023-07-24T12:07:36;24.20;90.30
23591;DHT22;11973;52.098;7.582;2023-07-24T12:10:03;24.10;90.40
23591;DHT22;11973;52.098;7.582;2023-07-24T12:12:46;24.00;90.10
23591;DHT22;11973;52.098;7.582;2023-07-24T12:15:13;23.80;89.90
23591;DHT22;11973;52.098;7.582;2023-07-24T12:17:40;23.70;90.00
23591;DHT22;11973;52.098;7.582;2023-07-24T12:20:07;23.60;90.30
23591;DHT22;11973;52.098;7.582;2023-07-24T12:22:38;23.40;89.70
23591;DHT22;11973;52.098;7.582;2023-07-24T12:25:05;23.20;89.60
23591;DHT22;11973;52.098;7.582;2023-07-24T12:27:31;23.00;89.50
23591;DHT22;11973;52.098;7.582;2023-07-24T12:29:58;22.90;89.60
23591;DHT22;11973;52.098;7.582;2023-07-24T12:32:23;22.70;90.00
23591;DHT22;11973;52.098;7.582;2023-07-24T12:34:50;22.60;89.50
23591;DHT22;11973;52.098;7.582;2023-07-24T12:37:17;22.50;89.60
23591;DHT22;11973;52.098;7.582;2023-07-24T12:39:44;22.40;89.40
23591;DHT22;11973;52.098;7.582;2023-07-24T12:42:11;22.30;89.40
23591;DHT22;11973;52.098;7.582;2023-07-24T12:44:36;22.20;89.40
23591;DHT22;11973;52.098;7.582;2023-07-24T12:47:03;22.10;89.30
23591;DHT22;11973;52.098;7.582;2023-07-24T12:49:29;22.10;89.30
23591;DHT22;11973;52.098;7.582;2023-07-24T12:51:55;22.00;89.30
23591;DHT22;11973;52.098;7.582;2023-07-24T12:54:21;22.00;89.40
23591;DHT22;11973;52.098;7.582;2023-07-24T12:56:48;22.00;89.40
23591;DHT22;11973;52.098;7.582;2023-07-24T12:59:14;21.90;89.40
23591;DHT22;11973;52.098;7.582;2023-07-24T13:01:39;21.90;89.40
23591;DHT22;11973;52.098;7.582;2023-07-24T13:04:05;21.90;89.50
23591;DHT22;11973;52.098;7.582;2023-07-24T13:06:31;21.90;89.50
23591;DHT22;11973;52.098;7.582;2023-07-24T13:08:57;21.90;89.50
23591;DHT22;11973;52.098;7.582;2023-07-24T13:11:22;21.90;89.50
23591;DHT22;11973;52.098;7.582;2023-07-24T13:13:48;21.90;89.50
23591;DHT22;11973;52.098;7.582;2023-07-24T13:16:16;22.00;89.50
23591;DHT22;11973;52.098;7.582;2023-07-24T13:18:42;22.10;89.50
23591;DHT22;11973;52.098;7.582;2023-07-24T13:21:08;22.20;89.40
23591;DHT22;11973;52.098;7.582;2023-07-24T13:23:34;22.30;89.40
23591;DHT22;11973;52.098;7.582;2023-07-24T13:26:00;22.40;89.70
23591;DHT22;11973;52.098;7.582;2023-07-24T13:28:26;22.80;90.50
23591;DHT22;11973;52.098;7.582;2023-07-24T13:30:51;23.40;90.40
23591;DHT22;11973;52.098;7.582;2023-07-24T13:33:17;23.90;90.30
23591;DHT22;11973;52.098;7.582;2023-07-24T13:35:43;24.30;90.30
23591;DHT22;11973;52.098;7.582;2023-07-24T13:38:08;24.70;90.00
23591;DHT22;11973;52.098;7.582;2023-07-24T13:40:35;24.80;89.20
23591;DHT22;11973;52.098;7.582;2023-07-24T13:43:01;24.60;88.60
23591;DHT22;11973;52.098;7.582;2023-07-24T13:45:28;24.40;88.30
23591;DHT22;11973;52.098;7.582;2023-07-24T13:47:57;24.10;88.00
23591;DHT22;11973;52.098;7.582;2023-07-24T13:50:23;24.00;88.00
23591;DHT22;11973;52.098;7.582;2023-07-24T13:52:48;24.00;88.00
23591;DHT22;11973;52.098;7.582;2023-07-24T13:55:14;24.20;88.40
23591;DHT22;11973;52.098;7.582;2023-07-24T13:57:41;24.40;88.60
23591;DHT22;11973;52.098;7.582;2023-07-24T14:00:07;24.60;88.30
23591;DHT22;11973;52.098;7.582;2023-07-24T14:02:37;24.60;88.00
23591;DHT22;11973;52.098;7.582;2023-07-24T14:05:03;24.70;87.90
23591;DHT22;11973;52.098;7.582;2023-07-24T14:07:29;25.00;88.50
23591;DHT22;11973;52.098;7.582;2023-07-24T14:09:54;25.30;88.00
23591;DHT22;11973;52.098;7.582;2023-07-24T14:12:20;25.50;88.10
23591;DHT22;11973;52.098;7.582;2023-07-24T14:14:46;26.00;90.00
23591;DHT22;11973;52.098;7.582;2023-07-24T14:17:11;26.70;89.70
23591;DHT22;11973;52.098;7.582;2023-07-24T14:19:40;27.20;88.50
23591;DHT22;11973;52.098;7.582;2023-07-24T14:22:06;27.70;88.10
23591;DHT22;11973;52.098;7.582;2023-07-24T14:24:31;28.20;87.70
23591;DHT22;11973;52.098;7.582;2023-07-24T14:26:57;28.70;86.00
23591;DHT22;11973;52.098;7.582;2023-07-24T14:29:23;29.10;83.70
23591;DHT22;11973;52.098;7.582;2023-07-24T14:31:48;29.40;83.40
23591;DHT22;11973;52.098;7.582;2023-07-24T14:34:14;29.90;83.00
23591;DHT22;11973;52.098;7.582;2023-07-24T14:36:39;30.40;81.90
23591;DHT22;11973;52.098;7.582;2023-07-24T14:39:05;31.00;80.20
23591;DHT22;11973;52.098;7.582;2023-07-24T14:41:31;31.30;78.60
23591;DHT22;11973;52.098;7.582;2023-07-24T14:43:57;31.50;76.90
23591;DHT22;11973;52.098;7.582;2023-07-24T14:46:23;31.90;76.80
23591;DHT22;11973;52.098;7.582;2023-07-24T14:48:49;32.30;75.40
23591;DHT22;11973;52.098;7.582;2023-07-24T14:51:15;32.60;73.00
23591;DHT22;11973;52.098;7.582;2023-07-24T14:53:41;32.50;70.00
23591;DHT22;11973;52.098;7.582;2023-07-24T14:56:06;32.30;68.90
23591;DHT22;11973;52.098;7.582;2023-07-24T14:58:32;32.10;67.00
23591;DHT22;11973;52.098;7.582;2023-07-24T15:00:57;31.70;66.20
23591;DHT22;11973;52.098;7.582;2023-07-24T15:03:23;31.40;65.00
23591;DHT22;11973;52.098;7.582;2023-07-24T15:05:49;31.00;64.10
23591;DHT22;11973;52.098;7.582;2023-07-24T15:08:15;31.00;65.10
23591;DHT22;11973;52.098;7.582;2023-07-24T15:10:40;31.30;64.80
23591;DHT22;11973;52.098;7.582;2023-07-24T15:13:08;31.80;64.00
23591;DHT22;11973;52.098;7.582;2023-07-24T15:15:34;32.10;62.70
23591;DHT22;11973;52.098;7.582;2023-07-24T15:18:00;32.50;62.40
23591;DHT22;11973;52.098;7.582;2023-07-24T15:20:26;32.80;61.60
23591;DHT22;11973;52.098;7.582;2023-07-24T15:22:51;32.90;59.80
23591;DHT22;11973;52.098;7.582;2023-07-24T15:25:20;33.00;59.20
23591;DHT22;11973;52.098;7.582;2023-07-24T15:27:46;32.70;57.80
23591;DHT22;11973;52.098;7.582;2023-07-24T15:30:13;32.10;57.10
23591;DHT22;11973;52.098;7.582;2023-07-24T15:32:38;31.80;57.30
23591;DHT22;11973;52.098;7.582;2023-07-24T15:35:04;31.60;57.20
23591;DHT22;11973;52.098;7.582;2023-07-24T15:37:30;31.80;57.50
23591;DHT22;11973;52.098;7.582;2023-07-24T15:39:59;32.30;57.30
23591;DHT22;11973;52.098;7.582;2023-07-24T15:42:25;32.80;57.20
23591;DHT22;11973;52.098;7.582;2023-07-24T15:44:51;32.90;54.80
23591;DHT22;11973;52.098;7.582;2023-07-24T15:47:17;33.00;55.30
23591;DHT22;11973;52.098;7.582;2023-07-24T15:49:42;32.80;53.70
23591;DHT22;11973;52.098;7.582;2023-07-24T15:52:08;32.60;53.50
23591;DHT22;11973;52.098;7.582;2023-07-24T15:54:35;32.20;53.30
23591;DHT22;11973;52.098;7.582;2023-07-24T15:57:01;32.00;53.20
23591;DHT22;11973;52.098;7.582;2023-07-24T15:59:27;31.60;52.70
23591;DHT22;11973;52.098;7.582;2023-07-24T16:01:53;31.10;52.60
23591;DHT22;11973;52.098;7.582;2023-07-24T16:04:20;30.60;53.30
23591;DHT22;11973;52.098;7.582;2023-07-24T16:06:46;30.10;53.30
23591;DHT22;11973;52.098;7.582;2023-07-24T16:09:12;29.60;52.80
23591;DHT22;11973;52.098;7.582;2023-07-24T16:11:38;29.00;52.90
23591;DHT22;11973;52.098;7.582;2023-07-24T16:14:04;28.40;53.30
23591;DHT22;11973;52.098;7.582;2023-07-24T16:16:30;27.90;53.80
23591;DHT22;11973;52.098;7.582;2023-07-24T16:19:15;27.40;54.20
23591;DHT22;11973;52.098;7.582;2023-07-24T16:21:42;27.00;54.70
23591;DHT22;11973;52.098;7.582;2023-07-24T16:24:08;26.60;55.20
23591;DHT22;11973;52.098;7.582;2023-07-24T16:26:35;26.20;55.50
23591;DHT22;11973;52.098;7.582;2023-07-24T16:29:01;25.80;56.00
23591;DHT22;11973;52.098;7.582;2023-07-24T16:31:28;25.50;56.50
23591;DHT22;11973;52.098;7.582;2023-07-24T16:33:54;25.20;57.00
23591;DHT22;11973;52.098;7.582;2023-07-24T16:36:20;25.00;57.50
23591;DHT22;11973;52.098;7.582;2023-07-24T16:38:45;24.80;57.90
23591;DHT22;11973;52.098;7.582;2023-07-24T16:41:11;24.50;58.30
23591;DHT22;11973;52.098;7.582;2023-07-24T16:43:37;24.30;58.70
23591;DHT22;11973;52.098;7.582;2023-07-24T16:46:03;24.10;59.10
23591;DHT22;11973;52.098;7.582;2023-07-24T16:48:28;23.90;59.60
23591;DHT22;11973;52.098;7.582;2023-07-24T16:50:54;23.60;59.30
23591;DHT22;11973;52.098;7.582;2023-07-24T16:53:20;23.40;58.80
23591;DHT22;11973;52.098;7.582;2023-07-24T16:55:45;23.10;58.60
23591;DHT22;11973;52.098;7.582;2023-07-24T16:58:11;22.80;58.90
23591;DHT22;11973;52.098;7.582;2023-07-24T17:00:37;22.40;59.20
23591;DHT22;11973;52.098;7.582;2023-07-24T17:03:02;22.10;59.70
23591;DHT22;11973;52.098;7.582;2023-07-24T17:05:28;21.70;60.20
23591;DHT22;11973;52.098;7.582;2023-07-24T17:07:54;21.40;61.10
23591;DHT22;11973;52.098;7.582;2023-07-24T17:10:20;21.10;62.10
23591;DHT22;11973;52.098;7.582;2023-07-24T17:12:45;20.90;62.60
23591;DHT22;11973;52.098;7.582;2023-07-24T17:15:11;20.80;63.30
23591;DHT22;11973;52.098;7.582;2023-07-24T17:17:37;20.70;64.00
23591;DHT22;11973;52.098;7.582;2023-07-24T17:20:04;20.80;64.40
23591;DHT22;11973;52.098;7.582;2023-07-24T17:22:30;20.80;64.90
23591;DHT22;11973;52.098;7.582;2023-07-24T17:24:56;20.80;65.30
23591;DHT22;11973;52.098;7.582;2023-07-24T17:27:22;20.90;65.60
23591;DHT22;11973;52.098;7.582;2023-07-24T17:29:47;20.90;66.00
23591;DHT22;11973;52.098;7.582;2023-07-24T17:32:13;20.90;66.20
23591;DHT22;11973;52.098;7.582;2023-07-24T17:34:40;20.90;66.60
23591;DHT22;11973;52.098;7.582;2023-07-24T17:37:06;21.00;67.10
23591;DHT22;11973;52.098;7.582;2023-07-24T17:39:32;21.00;67.30
23591;DHT22;11973;52.098;7.582;2023-07-24T17:41:57;21.10;67.60
23591;DHT22;11973;52.098;7.582;2023-07-24T17:44:23;21.20;68.70
23591;DHT22;11973;52.098;7.582;2023-07-24T17:46:49;21.30;68.20
23591;DHT22;11973;52.098;7.582;2023-07-24T17:49:15;21.30;68.40
23591;DHT22;11973;52.098;7.582;2023-07-24T17:51:40;21.30;69.60
23591;DHT22;11973;52.098;7.582;2023-07-24T17:54:06;21.30;69.20
23591;DHT22;11973;52.098;7.582;2023-07-24T17:56:32;21.30;70.40
23591;DHT22;11973;52.098;7.582;2023-07-24T17:58:57;21.20;69.70
23591;DHT22;11973;52.098;7.582;2023-07-24T18:01:23;21.20;70.10
23591;DHT22;11973;52.098;7.582;2023-07-24T18:03:49;21.10;70.40
23591;DHT22;11973;52.098;7.582;2023-07-24T18:06:14;21.00;70.70
23591;DHT22;11973;52.098;7.582;2023-07-24T18:08:40;20.90;71.10
23591;DHT22;11973;52.098;7.582;2023-07-24T18:11:06;20.90;71.40
23591;DHT22;11973;52.098;7.582;2023-07-24T18:13:32;20.90;71.70
23591;DHT22;11973;52.098;7.582;2023-07-24T18:15:57;20.90;72.00
23591;DHT22;11973;52.098;7.582;2023-07-24T18:18:23;20.90;72.30
23591;DHT22;11973;52.098;7.582;2023-07-24T18:20:49;20.80;72.40
23591;DHT22;11973;52.098;7.582;2023-07-24T18:23:15;20.80;72.70
23591;DHT22;11973;52.098;7.582;2023-07-24T18:25:40;20.70;73.70
23591;DHT22;11973;52.098;7.582;2023-07-24T18:28:06;20.70;73.30
23591;DHT22;11973;52.098;7.582;2023-07-24T18:30:32;20.60;74.40
23591;DHT22;11973;52.098;7.582;2023-07-24T18:32:58;20.50;74.20
23591;DHT22;11973;52.098;7.582;2023-07-24T18:35:24;20.40;74.60
23591;DHT22;11973;52.098;7.582;2023-07-24T18:37:50;20.30;75.10
23591;DHT22;11973;52.098;7.582;2023-07-24T18:40:16;20.20;75.50
23591;DHT22;11973;52.098;7.582;2023-07-24T18:42:42;20.20;75.90
23591;DHT22;11973;52.098;7.582;2023-07-24T18:45:08;20.10;77.10
23591;DHT22;11973;52.098;7.582;2023-07-24T18:47:34;20.00;76.70
23591;DHT22;11973;52.098;7.582;2023-07-24T18:50:01;20.00;77.10
23591;DHT22;11973;52.098;7.582;2023-07-24T18:52:26;19.90;77.30
23591;DHT22;11973;52.098;7.582;2023-07-24T18:54:52;19.90;77.70
23591;DHT22;11973;52.098;7.582;2023-07-24T18:57:19;19.80;78.00
23591;DHT22;11973;52.098;7.582;2023-07-24T18:59:45;19.80;78.40
23591;DHT22;11973;52.098;7.582;2023-07-24T19:02:11;19.70;78.80
23591;DHT22;11973;52.098;7.582;2023-07-24T19:04:36;19.70;79.20
23591;DHT22;11973;52.098;7.582;2023-07-24T19:07:02;19.70;79.60
23591;DHT22;11973;52.098;7.582;2023-07-24T19:09:28;19.70;80.00
23591;DHT22;11973;52.098;7.582;2023-07-24T19:11:54;19.60;80.20
23591;DHT22;11973;52.098;7.582;2023-07-24T19:14:20;19.60;80.50
23591;DHT22;11973;52.098;7.582;2023-07-24T19:16:46;19.50;80.80
23591;DHT22;11973;52.098;7.582;2023-07-24T19:19:11;19.50;81.10
23591;DHT22;11973;52.098;7.582;2023-07-24T19:21:37;19.50;81.70
23591;DHT22;11973;52.098;7.582;2023-07-24T19:24:03;19.40;82.10
23591;DHT22;11973;52.098;7.582;2023-07-24T19:26:29;19.30;82.70
23591;DHT22;11973;52.098;7.582;2023-07-24T19:28:55;19.20;83.00
23591;DHT22;11973;52.098;7.582;2023-07-24T19:31:21;19.10;84.40
23591;DHT22;11973;52.098;7.582;2023-07-24T19:33:46;19.00;85.20
23591;DHT22;11973;52.098;7.582;2023-07-24T19:36:12;18.90;86.60
23591;DHT22;11973;52.098;7.582;2023-07-24T19:38:38;18.90;87.70
23591;DHT22;11973;52.098;7.582;2023-07-24T19:41:04;18.80;88.20
23591;DHT22;11973;52.098;7.582;2023-07-24T19:43:30;18.70;89.10